Flugplatz Marburg-Schönstadt

Für EDFN sind keine METAR/TAF Berichte vorhanden.
Es werden die Flugwettermeldungen vom Flugplatz Fritzlar Airport in 42 km Entfernung angezeigt.

Bericht für ETHF

vom 16.02. um 23:20 UTC

Wind 14 kt aus 260°

Sichtweite 10 km oder mehr

aufgebrochene Bewölkung in 5000 ft

Temperatur 10.0°C

Taupunkt 6.0°C

Luftfeuchtigkeit 76%

Luftdruck 1009 hPa

ETHF 162320Z 26014KT 9999 BKN050 10/06 Q1009 BLU
Keine Prognose (TAF) verfügbar.
Impressum